createdAt,value
2019-01-03T00:00:49.486Z,2.50
2019-01-03T00:03:36.826Z,2.50
2019-01-03T00:06:24.327Z,2.50
2019-01-03T00:09:26.003Z,2.50
2019-01-03T00:12:13.052Z,2.60
2019-01-03T00:15:00.211Z,2.60
2019-01-03T00:17:48.686Z,2.60
2019-01-03T00:20:36.083Z,2.60
2019-01-03T00:23:27.977Z,2.60
2019-01-03T00:26:22.539Z,2.60
2019-01-03T00:29:11.165Z,2.60
2019-01-03T00:31:59.642Z,2.60
2019-01-03T00:34:50.935Z,2.60
2019-01-03T00:37:48.594Z,2.70
2019-01-03T00:40:35.710Z,2.70
2019-01-03T00:43:24.167Z,2.70
2019-01-03T00:46:11.667Z,2.70
2019-01-03T00:48:58.748Z,2.70
2019-01-03T00:51:46.163Z,2.70
2019-01-03T00:54:33.745Z,2.70
2019-01-03T00:57:20.890Z,2.70
2019-01-03T01:00:15.176Z,2.70
2019-01-03T01:03:04.072Z,2.70
2019-01-03T01:06:06.765Z,2.60
2019-01-03T01:08:58.404Z,2.70
2019-01-03T01:11:52.849Z,2.60
2019-01-03T01:14:59.725Z,2.70
2019-01-03T01:18:00.336Z,2.70
2019-01-03T01:20:51.567Z,2.70
2019-01-03T01:23:38.653Z,2.70
2019-01-03T01:26:26.092Z,2.70
2019-01-03T01:29:13.198Z,2.70
2019-01-03T01:31:56.645Z,2.80
2019-01-03T01:34:48.392Z,2.80
2019-01-03T01:37:35.576Z,2.80
2019-01-03T01:40:27.427Z,2.80
2019-01-03T01:43:22.285Z,2.80
2019-01-03T01:46:22.861Z,2.80
2019-01-03T01:49:09.942Z,2.80
2019-01-03T01:52:07.225Z,2.80
2019-01-03T01:55:00.395Z,2.80
2019-01-03T01:57:47.550Z,2.80
2019-01-03T02:00:37.477Z,2.80
2019-01-03T02:03:24.900Z,2.80
2019-01-03T02:06:09.989Z,2.80
2019-01-03T02:08:56.624Z,2.80
2019-01-03T02:11:54.122Z,2.80
2019-01-03T02:14:43.001Z,2.90
2019-01-03T02:17:34.207Z,2.90
2019-01-03T02:20:28.530Z,2.90
2019-01-03T02:23:26.414Z,2.90
2019-01-03T02:26:15.257Z,2.90
2019-01-03T02:29:09.728Z,2.90
2019-01-03T02:31:58.192Z,3.00
2019-01-03T02:34:45.630Z,2.90
2019-01-03T02:37:42.269Z,3.00
2019-01-03T02:40:30.753Z,3.00
2019-01-03T02:43:25.050Z,2.90
2019-01-03T02:46:12.510Z,2.90
2019-01-03T02:49:09.028Z,2.90
2019-01-03T02:51:56.645Z,3.00
2019-01-03T02:54:48.101Z,3.00
2019-01-03T02:57:37.048Z,3.00
2019-01-03T03:00:25.886Z,3.00
2019-01-03T03:03:13.284Z,3.00
2019-01-03T03:06:00.006Z,3.00
2019-01-03T03:09:00.753Z,3.00
2019-01-03T03:11:49.197Z,3.00
2019-01-03T03:14:36.527Z,3.00
2019-01-03T03:17:27.722Z,3.00
2019-01-03T03:20:25.372Z,3.00
2019-01-03T03:23:12.862Z,3.00
2019-01-03T03:26:01.599Z,3.00
2019-01-03T03:29:08.398Z,3.00
2019-01-03T03:31:56.059Z,3.00
2019-01-03T03:34:44.484Z,3.00
2019-01-03T03:37:51.121Z,3.00
2019-01-03T03:40:42.309Z,3.00
2019-01-03T03:43:46.117Z,2.90
2019-01-03T03:46:53.011Z,2.90
2019-01-03T03:49:41.481Z,2.90
2019-01-03T03:52:34.543Z,2.90
2019-01-03T03:55:23.257Z,2.90
2019-01-03T03:58:26.796Z,2.90
2019-01-03T04:01:14.281Z,2.90
2019-01-03T04:04:11.995Z,2.90
2019-01-03T04:07:09.857Z,2.90
2019-01-03T04:10:01.336Z,2.90
2019-01-03T04:12:55.614Z,2.90
2019-01-03T04:15:44.470Z,2.90
2019-01-03T04:18:31.876Z,2.80
2019-01-03T04:21:29.321Z,2.80
2019-01-03T04:24:22.827Z,2.90
2019-01-03T04:27:15.185Z,2.90
2019-01-03T04:30:06.705Z,2.90
2019-01-03T04:33:10.446Z,2.90
2019-01-03T04:35:59.416Z,2.90
2019-01-03T04:38:58.238Z,2.90
2019-01-03T04:41:50.030Z,2.90
2019-01-03T04:44:38.364Z,2.90
2019-01-03T04:47:35.717Z,2.90
2019-01-03T04:50:23.369Z,2.90
2019-01-03T04:53:10.448Z,3.00
2019-01-03T04:55:57.991Z,3.00
2019-01-03T04:58:59.095Z,3.00
2019-01-03T05:02:19.391Z,3.00
2019-01-03T05:05:06.745Z,3.00
2019-01-03T05:07:57.231Z,3.00
2019-01-03T05:10:48.193Z,3.00
2019-01-03T05:13:39.709Z,2.90
2019-01-03T05:16:37.448Z,3.00
2019-01-03T05:19:44.093Z,3.00
2019-01-03T05:22:27.411Z,2.90
2019-01-03T05:25:15.053Z,2.90
2019-01-03T05:28:12.390Z,2.90
2019-01-03T05:31:01.142Z,2.90
2019-01-03T05:33:56.772Z,3.00
2019-01-03T05:36:45.549Z,2.90
2019-01-03T05:39:46.264Z,2.90
2019-01-03T05:42:33.775Z,2.90
2019-01-03T05:45:18.865Z,2.90
2019-01-03T05:48:10.620Z,2.80
2019-01-03T05:50:58.879Z,2.80
2019-01-03T05:53:46.665Z,2.80
2019-01-03T05:56:33.942Z,2.80
2019-01-03T05:59:22.028Z,2.80
2019-01-03T06:02:05.440Z,2.80
2019-01-03T06:04:54.193Z,2.80
2019-01-03T06:07:58.921Z,2.80
2019-01-03T06:10:46.428Z,2.80
2019-01-03T06:13:47.294Z,2.80
2019-01-03T06:16:35.877Z,2.80
2019-01-03T06:19:27.259Z,2.80
2019-01-03T06:22:31.404Z,2.80
2019-01-03T06:25:19.886Z,2.80
2019-01-03T06:28:08.128Z,2.70
2019-01-03T06:30:55.473Z,2.70
2019-01-03T06:33:46.728Z,2.70
2019-01-03T06:36:36.267Z,2.70
2019-01-03T06:39:25.138Z,2.60
2019-01-03T06:42:13.561Z,2.60
2019-01-03T06:45:01.919Z,2.60
2019-01-03T06:48:03.043Z,2.60
2019-01-03T06:50:57.307Z,2.60
2019-01-03T06:53:48.764Z,2.70
2019-01-03T06:56:36.679Z,2.70
2019-01-03T06:59:40.411Z,2.70
2019-01-03T07:02:27.438Z,2.70
2019-01-03T07:05:16.715Z,2.70
2019-01-03T07:08:03.878Z,2.70
2019-01-03T07:11:04.295Z,2.70
2019-01-03T07:14:05.236Z,2.70
2019-01-03T07:17:02.597Z,2.70
2019-01-03T07:19:49.774Z,2.70
2019-01-03T07:22:37.295Z,2.70
2019-01-03T07:25:36.968Z,2.70
2019-01-03T07:28:24.153Z,2.70
2019-01-03T07:31:15.560Z,2.80
2019-01-03T07:34:06.151Z,2.80
2019-01-03T07:36:52.557Z,2.80
2019-01-03T07:39:50.446Z,2.80
2019-01-03T07:42:37.510Z,2.80
2019-01-03T07:45:28.998Z,2.80
2019-01-03T07:48:23.459Z,2.80
2019-01-03T07:51:18.796Z,2.90
2019-01-03T07:54:13.092Z,2.90
2019-01-03T07:57:00.543Z,2.90
2019-01-03T07:59:48.371Z,2.90
2019-01-03T08:02:43.454Z,2.90
2019-01-03T08:05:44.191Z,2.90
2019-01-03T08:08:38.468Z,2.90
2019-01-03T08:11:39.467Z,2.90
2019-01-03T08:14:36.703Z,2.90
2019-01-03T08:17:23.828Z,2.90
2019-01-03T08:20:07.400Z,2.90
2019-01-03T08:22:54.589Z,2.90
2019-01-03T08:25:35.053Z,2.90
2019-01-03T08:28:29.628Z,2.90
2019-01-03T08:31:20.491Z,2.90
2019-01-03T08:34:02.753Z,3.00
2019-01-03T08:36:50.157Z,3.00
2019-01-03T08:39:41.962Z,3.10
2019-01-03T08:42:48.864Z,3.00
2019-01-03T08:45:43.664Z,3.00
2019-01-03T08:48:44.521Z,3.10
2019-01-03T08:51:31.541Z,3.10
2019-01-03T08:54:23.300Z,3.10
2019-01-03T08:57:14.487Z,3.20
2019-01-03T09:00:09.015Z,3.20
2019-01-03T09:03:00.257Z,3.20
2019-01-03T09:05:51.478Z,3.20
2019-01-03T09:08:38.549Z,3.20
2019-01-03T09:11:38.285Z,3.20
2019-01-03T09:14:25.660Z,3.20
2019-01-03T09:17:20.129Z,3.20
2019-01-03T09:20:07.256Z,3.20
2019-01-03T09:23:07.601Z,3.20
2019-01-03T09:25:58.861Z,3.30
2019-01-03T09:28:46.182Z,3.30
2019-01-03T09:31:33.243Z,3.30
2019-01-03T09:34:21.794Z,3.30
2019-01-03T09:37:16.211Z,3.30
2019-01-03T09:40:10.893Z,3.30
2019-01-03T09:43:05.422Z,3.30
2019-01-03T09:45:43.987Z,3.40
2019-01-03T09:48:06.257Z,3.50
2019-01-03T09:50:35.805Z,3.60
2019-01-03T09:53:05.489Z,3.60
2019-01-03T09:55:34.979Z,3.60
2019-01-03T09:58:04.880Z,3.60
2019-01-03T10:00:34.564Z,3.70
2019-01-03T10:03:04.554Z,3.70
2019-01-03T10:05:34.068Z,3.70
2019-01-03T10:08:03.708Z,3.80
2019-01-03T10:10:33.788Z,3.80
2019-01-03T10:13:03.813Z,3.90
2019-01-03T10:15:33.368Z,3.90
2019-01-03T10:18:02.878Z,3.90
2019-01-03T10:20:32.523Z,3.90
2019-01-03T10:23:02.152Z,3.90
2019-01-03T10:25:32.279Z,3.90
2019-01-03T10:28:02.100Z,4.00
2019-01-03T10:30:31.598Z,4.00
2019-01-03T10:33:02.114Z,4.10
2019-01-03T10:35:32.080Z,4.10
2019-01-03T10:38:01.568Z,4.20
2019-01-03T10:40:31.121Z,4.20
2019-01-03T10:43:00.647Z,4.30
2019-01-03T10:45:30.173Z,4.20
2019-01-03T10:47:59.698Z,4.30
2019-01-03T10:50:29.633Z,4.30
2019-01-03T10:52:59.848Z,4.30
2019-01-03T10:55:29.367Z,4.30
2019-01-03T10:57:58.893Z,4.40
2019-01-03T11:00:28.715Z,4.30
2019-01-03T11:02:58.571Z,4.30
2019-01-03T11:05:28.309Z,4.30
2019-01-03T11:07:58.153Z,4.40
2019-01-03T11:10:28.115Z,4.40
2019-01-03T11:12:57.964Z,4.30
2019-01-03T11:15:27.845Z,4.40
2019-01-03T11:17:57.482Z,4.40
2019-01-03T11:20:27.348Z,4.40
2019-01-03T11:22:57.182Z,4.40
2019-01-03T11:25:26.796Z,4.40
2019-01-03T11:27:56.398Z,4.40
2019-01-03T11:30:25.917Z,4.50
2019-01-03T11:32:56.445Z,4.50
2019-01-03T11:35:26.855Z,4.50
2019-01-03T11:37:57.068Z,4.60
2019-01-03T11:40:26.611Z,4.70
2019-01-03T11:42:56.144Z,4.80
2019-01-03T11:45:25.699Z,4.90
2019-01-03T11:47:55.210Z,4.90
2019-01-03T11:50:24.772Z,5.00
2019-01-03T11:52:54.312Z,5.00
2019-01-03T11:55:23.902Z,5.00
2019-01-03T11:57:53.412Z,5.00
2019-01-03T12:00:22.975Z,4.90
2019-01-03T12:02:52.925Z,5.00
2019-01-03T12:05:22.478Z,5.00
2019-01-03T12:07:52.092Z,5.00
2019-01-03T12:10:21.880Z,5.10
2019-01-03T12:12:51.398Z,5.00
2019-01-03T12:15:21.045Z,5.10
2019-01-03T12:17:51.009Z,5.00
2019-01-03T12:20:20.884Z,5.00
2019-01-03T12:22:50.783Z,5.00
2019-01-03T12:25:21.398Z,5.00
2019-01-03T12:27:50.914Z,5.00
2019-01-03T12:30:20.448Z,5.00
2019-01-03T12:32:50.087Z,5.00
2019-01-03T12:35:19.809Z,5.00
2019-01-03T12:37:49.333Z,5.10
2019-01-03T12:40:18.860Z,5.10
2019-01-03T12:42:48.515Z,5.20
2019-01-03T12:45:18.016Z,5.20
2019-01-03T12:47:47.507Z,5.20
2019-01-03T12:50:17.447Z,5.20
2019-01-03T12:52:47.308Z,5.30
2019-01-03T12:55:16.951Z,5.50
2019-01-03T12:57:46.476Z,5.50
2019-01-03T13:00:15.988Z,5.50
2019-01-03T13:02:46.306Z,5.40
2019-01-03T13:05:16.179Z,5.50
2019-01-03T13:07:45.960Z,5.50
2019-01-03T13:10:15.558Z,5.50
2019-01-03T13:12:45.052Z,5.50
2019-01-03T13:15:14.535Z,5.40
2019-01-03T13:17:44.458Z,5.40
2019-01-03T13:20:13.983Z,5.40
2019-01-03T13:22:43.507Z,5.40
2019-01-03T13:25:13.508Z,5.40
2019-01-03T13:27:43.035Z,5.40
2019-01-03T13:30:12.793Z,5.30
2019-01-03T13:32:42.315Z,5.30
2019-01-03T13:35:12.259Z,5.20
2019-01-03T13:37:42.197Z,5.20
2019-01-03T13:40:12.035Z,5.30
2019-01-03T13:42:41.523Z,5.30
2019-01-03T13:45:11.089Z,5.30
2019-01-03T13:47:40.591Z,5.20
2019-01-03T13:50:10.084Z,5.40
2019-01-03T13:52:39.637Z,5.40
2019-01-03T13:55:09.134Z,5.30
2019-01-03T13:57:38.616Z,5.40
2019-01-03T14:00:10.424Z,5.40
2019-01-03T14:02:39.927Z,5.30
2019-01-03T14:05:09.442Z,5.20
2019-01-03T14:07:39.340Z,5.20
2019-01-03T14:10:09.025Z,5.20
2019-01-03T14:12:38.954Z,5.20
2019-01-03T14:15:08.662Z,5.30
2019-01-03T14:17:38.177Z,5.30
2019-01-03T14:20:10.486Z,5.20
2019-01-03T14:22:40.554Z,5.20
2019-01-03T14:25:10.056Z,5.10
2019-01-03T14:27:39.767Z,5.10
2019-01-03T14:30:10.991Z,5.10
2019-01-03T14:32:40.553Z,5.10
2019-01-03T14:35:10.581Z,5.10
2019-01-03T14:37:43.309Z,5.20
2019-01-03T14:40:13.233Z,5.30
2019-01-03T14:42:43.036Z,5.20
2019-01-03T14:45:12.584Z,5.20
2019-01-03T14:47:42.362Z,5.10
2019-01-03T14:50:12.334Z,5.20
2019-01-03T14:52:42.297Z,5.20
2019-01-03T14:55:11.804Z,5.10
2019-01-03T14:57:41.735Z,5.20
2019-01-03T15:00:14.412Z,5.10
2019-01-03T15:02:43.974Z,5.10
2019-01-03T15:05:14.043Z,5.10
2019-01-03T15:07:43.726Z,5.10
2019-01-03T15:10:13.285Z,5.00
2019-01-03T15:12:42.791Z,4.90
2019-01-03T15:15:12.357Z,4.90
2019-01-03T15:17:41.843Z,4.80
2019-01-03T15:20:12.500Z,4.70
2019-01-03T15:22:42.044Z,4.60
2019-01-03T15:25:11.990Z,4.60
2019-01-03T15:27:42.742Z,4.60
2019-01-03T15:30:12.885Z,4.50
2019-01-03T15:32:42.432Z,4.40
2019-01-03T15:35:12.679Z,4.40
2019-01-03T15:37:42.167Z,4.30
2019-01-03T15:40:11.912Z,4.30
2019-01-03T15:42:41.449Z,4.30
2019-01-03T15:45:10.938Z,4.30
2019-01-03T15:47:40.819Z,4.30
2019-01-03T15:50:10.334Z,4.30
2019-01-03T15:52:39.977Z,4.30
2019-01-03T15:55:09.449Z,4.30
2019-01-03T15:57:38.955Z,4.40
2019-01-03T16:00:10.927Z,4.30
2019-01-03T16:02:40.412Z,4.40
2019-01-03T16:05:09.932Z,4.40
2019-01-03T16:07:39.477Z,4.40
2019-01-03T16:10:09.788Z,4.40
2019-01-03T16:12:39.344Z,4.30
2019-01-03T16:15:08.899Z,4.30
2019-01-03T16:17:38.746Z,4.30
2019-01-03T16:23:03.072Z,4.20
2019-01-03T16:25:32.844Z,4.20
2019-01-03T16:28:02.412Z,4.20
2019-01-03T16:30:31.922Z,4.20
2019-01-03T16:33:01.461Z,4.20
2019-01-03T16:35:31.046Z,4.10
2019-01-03T16:38:00.539Z,4.20
2019-01-03T16:40:30.199Z,4.10
2019-01-03T16:43:00.185Z,4.20
2019-01-03T16:45:29.714Z,4.20
2019-01-03T16:47:59.241Z,4.20
2019-01-03T16:50:28.751Z,4.10
2019-01-03T16:52:58.309Z,4.00
2019-01-03T16:55:27.828Z,4.00
2019-01-03T16:57:57.295Z,3.90
2019-01-03T17:00:26.808Z,3.80
2019-01-03T17:02:56.345Z,3.80
2019-01-03T17:05:26.290Z,3.70
2019-01-03T17:07:55.804Z,3.60
2019-01-03T17:10:25.673Z,3.60
2019-01-03T17:12:55.248Z,3.60
2019-01-03T17:15:24.890Z,3.50
2019-01-03T17:17:54.545Z,3.50
2019-01-03T17:20:24.474Z,3.50
2019-01-03T17:22:54.011Z,3.50
2019-01-03T17:25:24.035Z,3.50
2019-01-03T17:27:53.880Z,3.60
2019-01-03T17:30:23.446Z,3.60
2019-01-03T17:32:53.122Z,3.60
2019-01-03T17:35:22.684Z,3.60
2019-01-03T17:37:52.243Z,3.60
2019-01-03T17:40:21.777Z,3.60
2019-01-03T17:42:51.433Z,3.50
2019-01-03T17:45:20.911Z,3.50
2019-01-03T17:47:50.425Z,3.50
2019-01-03T17:50:20.709Z,3.50
2019-01-03T17:52:50.288Z,3.50
2019-01-03T17:55:19.803Z,3.50
2019-01-03T17:57:49.284Z,3.50
2019-01-03T18:00:21.365Z,3.40
2019-01-03T18:02:51.677Z,3.60
2019-01-03T18:05:21.199Z,3.50
2019-01-03T18:07:51.082Z,3.30
2019-01-03T18:10:21.053Z,3.20
2019-01-03T18:12:50.596Z,3.10
2019-01-03T18:15:20.098Z,3.00
2019-01-03T18:17:50.017Z,3.00
2019-01-03T18:20:19.946Z,2.90
2019-01-03T18:22:49.454Z,2.90
2019-01-03T18:25:18.989Z,2.80
2019-01-03T18:27:48.558Z,2.80
2019-01-03T18:30:18.480Z,2.80
2019-01-03T18:32:48.112Z,2.70
2019-01-03T18:35:17.647Z,2.70
2019-01-03T18:37:47.495Z,2.70
2019-01-03T18:40:17.499Z,2.70
2019-01-03T18:42:48.158Z,2.70
2019-01-03T18:45:23.411Z,2.50
2019-01-03T18:47:52.938Z,2.60
2019-01-03T18:50:22.457Z,2.50
2019-01-03T18:52:52.886Z,2.50
2019-01-03T18:55:22.838Z,2.50
2019-01-03T18:57:52.791Z,2.40
2019-01-03T19:00:23.014Z,2.40
2019-01-03T19:02:53.037Z,2.30
2019-01-03T19:05:22.993Z,2.30
2019-01-03T19:07:53.229Z,2.40
2019-01-03T19:10:28.231Z,2.30
2019-01-03T19:12:55.016Z,2.30
2019-01-03T19:15:24.750Z,2.30
2019-01-03T19:17:54.915Z,2.40
2019-01-03T19:20:24.453Z,2.30
2019-01-03T19:22:54.352Z,2.20
2019-01-03T19:25:24.301Z,2.30
2019-01-03T19:27:53.824Z,2.20
2019-01-03T19:30:23.495Z,2.20
2019-01-03T19:32:53.634Z,2.10
2019-01-03T19:35:23.177Z,2.00
2019-01-03T19:37:52.792Z,2.00
2019-01-03T19:40:22.799Z,1.90
2019-01-03T19:42:52.538Z,1.90
2019-01-03T19:45:22.077Z,1.90
2019-01-03T19:47:51.609Z,1.90
2019-01-03T19:50:21.989Z,1.90
2019-01-03T19:52:51.500Z,1.90
2019-01-03T19:55:21.051Z,1.80
2019-01-03T19:57:50.568Z,1.80
2019-01-03T20:00:20.098Z,1.70
2019-01-03T20:02:49.825Z,1.60
2019-01-03T20:05:19.795Z,1.50
2019-01-03T20:07:49.946Z,1.60
2019-01-03T20:10:19.882Z,1.70
2019-01-03T20:12:49.817Z,1.70
2019-01-03T20:15:19.846Z,1.70
2019-01-03T20:17:49.353Z,1.60
2019-01-03T20:20:19.242Z,1.60
2019-01-03T20:22:48.796Z,1.50
2019-01-03T20:25:18.308Z,1.50
2019-01-03T20:27:47.919Z,1.50
2019-01-03T20:30:17.439Z,1.50
2019-01-03T20:32:47.102Z,1.40
2019-01-03T20:35:16.948Z,1.40
2019-01-03T20:37:46.448Z,1.40
2019-01-03T20:40:16.085Z,1.40
2019-01-03T20:42:45.641Z,1.30
2019-01-03T20:45:15.321Z,1.30
2019-01-03T20:47:44.965Z,1.30
2019-01-03T20:50:14.458Z,1.20
2019-01-03T20:52:44.449Z,1.20
2019-01-03T20:55:14.742Z,1.20
2019-01-03T20:57:44.281Z,1.10
2019-01-03T21:00:16.467Z,1.10
2019-01-03T21:02:46.466Z,1.10
2019-01-03T21:05:16.278Z,1.10
2019-01-03T21:07:46.012Z,1.00
2019-01-03T21:10:15.537Z,1.00
2019-01-03T21:12:45.065Z,1.00
2019-01-03T21:15:17.332Z,1.00
2019-01-03T21:17:47.222Z,0.90
2019-01-03T21:20:17.717Z,0.80
2019-01-03T21:22:47.662Z,0.80
2019-01-03T21:25:18.200Z,0.80
2019-01-03T21:27:47.750Z,0.80
2019-01-03T21:30:19.488Z,0.70
2019-01-03T21:32:49.044Z,0.70
2019-01-03T21:35:18.641Z,0.70
2019-01-03T21:37:48.179Z,0.70
2019-01-03T21:40:18.138Z,0.60
2019-01-03T21:42:47.677Z,0.60
2019-01-03T21:45:17.596Z,0.60
2019-01-03T21:47:47.161Z,0.60
2019-01-03T21:50:16.679Z,0.50
2019-01-03T21:52:46.539Z,0.50
2019-01-03T21:55:16.092Z,0.50
2019-01-03T21:57:45.579Z,0.50
2019-01-03T22:00:15.426Z,0.50
2019-01-03T22:02:45.180Z,0.50
2019-01-03T22:05:14.690Z,0.50
2019-01-03T22:07:44.230Z,0.70
2019-01-03T22:10:13.839Z,0.80
2019-01-03T22:12:43.369Z,0.90
2019-01-03T22:15:12.888Z,0.90
2019-01-03T22:17:42.432Z,1.00
2019-01-03T22:20:12.151Z,1.00
2019-01-03T22:22:41.700Z,1.00
2019-01-03T22:25:11.252Z,1.00
2019-01-03T22:27:40.894Z,1.00
2019-01-03T22:30:12.098Z,1.00
2019-01-03T22:32:41.812Z,0.90
2019-01-03T22:35:11.327Z,0.90
2019-01-03T22:37:41.207Z,1.00
2019-01-03T22:40:11.128Z,0.90
2019-01-03T22:42:40.804Z,0.90
2019-01-03T22:45:11.695Z,0.80
2019-01-03T22:47:41.168Z,0.80
2019-01-03T22:50:11.197Z,0.70
2019-01-03T22:52:41.002Z,0.70
2019-01-03T22:55:10.532Z,0.70
2019-01-03T22:57:40.179Z,0.60
2019-01-03T23:00:42.669Z,0.60
2019-01-03T23:03:12.294Z,0.60
2019-01-03T23:05:41.828Z,0.70
2019-01-03T23:08:11.343Z,0.70
2019-01-03T23:10:40.913Z,0.70
2019-01-03T23:13:10.458Z,0.70
2019-01-03T23:15:40.005Z,0.70
2019-01-03T23:18:09.604Z,0.60
2019-01-03T23:20:39.133Z,0.60
2019-01-03T23:23:08.690Z,0.60
2019-01-03T23:25:38.413Z,0.60
2019-01-03T23:28:08.277Z,0.60
2019-01-03T23:30:37.791Z,0.60
2019-01-03T23:33:07.350Z,0.50
2019-01-03T23:35:36.900Z,0.60
2019-01-03T23:38:06.475Z,0.60
2019-01-03T23:40:36.420Z,0.60
2019-01-03T23:43:05.952Z,0.60
2019-01-03T23:45:36.369Z,0.60
2019-01-03T23:48:05.928Z,0.50
2019-01-03T23:50:36.591Z,0.50
2019-01-03T23:53:06.608Z,0.50
2019-01-03T23:55:41.233Z,0.50
2019-01-03T23:58:10.804Z,0.50
